Davis Monthan Air Force Base
KDMA : now visible

Airfield :











YOU CAN JOIN US ON...

 
LOGIN :

Register | Disclaimer

   EN    FR    IT 

 









Legend :    VFR   Marginal VFR   IFR   Intensive IFR   Very Intensive IFR
Visi :
Ceiling :
>= 8 km
>= 3000ft
5 to 8 km
1000 to 3000 ft
1500m to 5 km
500 to 1000 ft
800 to 1500m
200 to 500 ft
< 800m
< 200 ft
Symbols :   Thunderstorms  Fog  Heavy snow  Heavy precipitations  Wind > 20 kt






- Airport Elevation : 2704 ft


KDMA - Davis Monthan Air Force Base

CURRENT METAR :
  • 121658Z AUTO 00000KT 10SM CLR 29/M09 A3005 RMK AO2 SLP133 T02851090 $

EXPIRED METARs :
  • 121558Z AUTO 00000KT 10SM CLR 26/M08 A3005 RMK AO2 SLP133 T02601080 $
  • 121458Z AUTO 11003KT 10SM CLR 24/M09 A3005 RMK AO2 SLP135 T02431093 52015 $

TAF TAF KDMA
Valid from the 12 at 14:00 until the 13 at 20:00 UTC


121408Z 1214/1320 12006KT 9999 SKC QNH3003INS
BECMG 1218/1219 23009KT 9999 SKC QNH3002INS
BECMG 1222/1223 27012KT 9999 SKC QNH2995INS
BECMG 1302/1303 VRB06KT 9999 SKC QNH2997INS
BECMG 1308/1309 12009KT 9999 SKC QNH3003INS TX34/1222Z TN18/1312Z
KZAB FIR / North America



MET'MAP, your aeronautical weather chart ! - Copyright ORBIFLY December 2007 - Disclaimer

ORBIFLY MET'MAP TEAM :

Programming & Development : Alexandra Zaïnal
Concept & original design : Baudouin d'Aumeries
Assistance for programming : Marc-Olivier Méhu
Technical & hardware support : Manuel Goepfert

Contact : metmap@orbifly.com




SOURCES & CREDITS :

   NOAA       Earth
Advisory